createdAt,value
2018-07-03T00:00:38.285Z,11.03
2018-07-03T00:01:38.269Z,10.98
2018-07-03T00:02:38.258Z,11.16
2018-07-03T00:03:38.234Z,11.28
2018-07-03T00:04:38.228Z,11.20
2018-07-03T00:05:38.195Z,11.28
2018-07-03T00:06:38.193Z,11.32
2018-07-03T00:07:38.168Z,11.38
2018-07-03T00:08:38.141Z,11.44
2018-07-03T00:09:38.150Z,11.56
2018-07-03T00:10:38.105Z,11.53
2018-07-03T00:11:38.109Z,11.70
2018-07-03T00:12:38.076Z,11.77
2018-07-03T00:13:38.053Z,11.65
2018-07-03T00:14:38.066Z,11.72
2018-07-03T00:15:38.024Z,11.56
2018-07-03T00:16:38.002Z,11.54
2018-07-03T00:17:37.983Z,11.54
2018-07-03T00:18:37.963Z,11.54
2018-07-03T00:19:37.951Z,11.52
2018-07-03T00:20:37.925Z,11.49
2018-07-03T00:21:37.916Z,11.41
2018-07-03T00:22:37.893Z,11.39
2018-07-03T00:23:37.890Z,11.36
2018-07-03T00:24:37.858Z,11.36
2018-07-03T00:25:37.869Z,11.54
2018-07-03T00:26:37.823Z,11.59
2018-07-03T00:27:37.810Z,11.56
2018-07-03T00:28:37.787Z,11.53
2018-07-03T00:29:37.781Z,11.54
2018-07-03T00:30:37.752Z,11.62
2018-07-03T00:31:37.732Z,11.54
2018-07-03T00:32:37.739Z,11.71
2018-07-03T00:33:37.708Z,11.72
2018-07-03T00:34:37.682Z,11.74
2018-07-03T00:35:37.670Z,11.74
2018-07-03T00:36:37.654Z,11.70
2018-07-03T00:37:37.634Z,11.67
2018-07-03T00:38:37.611Z,11.71
2018-07-03T00:39:37.598Z,11.68
2018-07-03T00:40:37.579Z,11.68
2018-07-03T00:41:37.557Z,11.71
2018-07-03T00:42:37.544Z,11.71
2018-07-03T00:43:37.524Z,11.75
2018-07-03T00:44:37.521Z,11.70
2018-07-03T00:45:37.485Z,11.70
2018-07-03T00:46:37.477Z,11.65
2018-07-03T00:47:37.455Z,11.68
2018-07-03T00:48:37.434Z,11.61
2018-07-03T00:49:37.418Z,11.59
2018-07-03T00:50:37.411Z,11.50
2018-07-03T00:51:37.383Z,11.50
2018-07-03T00:52:37.389Z,11.36
2018-07-03T00:53:37.347Z,11.47
2018-07-03T00:54:37.325Z,11.50
2018-07-03T00:55:37.314Z,11.57
2018-07-03T00:56:37.303Z,11.65
2018-07-03T00:57:37.313Z,11.68
2018-07-03T00:58:37.282Z,11.65
2018-07-03T00:59:37.246Z,11.54
2018-07-03T01:00:37.225Z,11.49
2018-07-03T01:01:37.213Z,11.50
2018-07-03T01:02:37.192Z,11.49
2018-07-03T01:03:37.180Z,11.50
2018-07-03T01:04:37.151Z,11.67
2018-07-03T01:05:37.148Z,11.68
2018-07-03T01:06:37.116Z,11.71
2018-07-03T01:07:37.107Z,11.70
2018-07-03T01:08:37.091Z,11.72
2018-07-03T01:09:37.065Z,11.70
2018-07-03T01:10:37.055Z,11.72
2018-07-03T01:11:37.030Z,11.87
2018-07-03T01:12:37.007Z,12.04
2018-07-03T01:13:37.007Z,12.11
2018-07-03T01:14:36.981Z,12.24
2018-07-03T01:15:36.956Z,12.16
2018-07-03T01:16:36.936Z,12.16
2018-07-03T01:17:36.927Z,12.04
2018-07-03T01:18:36.908Z,12.06
2018-07-03T01:19:36.911Z,11.99
2018-07-03T01:20:36.896Z,12.02
2018-07-03T01:21:36.851Z,11.99
2018-07-03T01:22:36.834Z,11.89
2018-07-03T01:23:36.815Z,11.82
2018-07-03T01:24:36.825Z,11.99
2018-07-03T01:25:36.787Z,12.11
2018-07-03T01:26:36.768Z,12.15
2018-07-03T01:27:36.761Z,12.20
2018-07-03T01:28:36.725Z,12.11
2018-07-03T01:29:36.714Z,12.16
2018-07-03T01:30:36.701Z,12.04
2018-07-03T01:31:36.691Z,12.01
2018-07-03T01:32:36.666Z,11.94
2018-07-03T01:33:36.647Z,11.94
2018-07-03T01:34:36.628Z,11.93
2018-07-03T01:35:36.621Z,11.89
2018-07-03T01:36:36.589Z,11.93
2018-07-03T01:37:36.573Z,11.78
2018-07-03T01:38:36.571Z,11.70
2018-07-03T01:39:36.535Z,11.75
2018-07-03T01:40:36.532Z,11.67
2018-07-03T01:41:36.518Z,11.72
2018-07-03T01:42:36.481Z,11.68
2018-07-03T01:43:36.474Z,11.72
2018-07-03T01:44:36.452Z,11.74
2018-07-03T01:45:36.433Z,11.71
2018-07-03T01:46:36.411Z,11.83
2018-07-03T01:47:36.404Z,11.75
2018-07-03T01:48:36.386Z,11.85
2018-07-03T01:49:36.374Z,11.75
2018-07-03T01:50:36.360Z,11.80
2018-07-03T01:51:36.327Z,11.82
2018-07-03T01:52:36.311Z,11.72
2018-07-03T01:53:36.301Z,11.72
2018-07-03T01:54:36.275Z,11.72
2018-07-03T01:55:36.253Z,11.75
2018-07-03T01:56:36.243Z,11.62
2018-07-03T01:57:36.224Z,11.62
2018-07-03T01:58:36.208Z,11.64
2018-07-03T01:59:36.195Z,11.59
2018-07-03T02:00:36.166Z,11.53
2018-07-03T02:01:36.159Z,11.54
2018-07-03T02:02:36.128Z,11.47
2018-07-03T02:03:36.131Z,11.36
2018-07-03T02:04:36.115Z,11.38
2018-07-03T02:05:36.095Z,11.38
2018-07-03T02:06:36.059Z,11.35
2018-07-03T02:07:36.059Z,11.57
2018-07-03T02:08:36.020Z,11.83
2018-07-03T02:09:36.018Z,11.87
2018-07-03T02:10:36.010Z,11.97
2018-07-03T02:11:35.981Z,11.94
2018-07-03T02:12:35.957Z,11.89
2018-07-03T02:13:35.940Z,11.74
2018-07-03T02:14:35.922Z,11.68
2018-07-03T02:15:35.910Z,11.62
2018-07-03T02:16:35.883Z,11.56
2018-07-03T02:17:35.882Z,11.52
2018-07-03T02:18:35.853Z,11.44
2018-07-03T02:19:35.850Z,11.35
2018-07-03T02:20:35.815Z,11.52
2018-07-03T02:21:35.798Z,11.53
2018-07-03T02:22:35.792Z,11.49
2018-07-03T02:23:35.763Z,11.43
2018-07-03T02:24:35.780Z,11.31
2018-07-03T02:25:35.719Z,11.27
2018-07-03T02:26:35.704Z,11.24
2018-07-03T02:27:35.685Z,11.19
2018-07-03T02:28:35.669Z,11.14
2018-07-03T02:29:35.657Z,11.07
2018-07-03T02:30:35.628Z,10.96
2018-07-03T02:31:35.635Z,10.86
2018-07-03T02:32:35.606Z,11.28
2018-07-03T02:33:35.577Z,11.53
2018-07-03T02:34:35.561Z,11.57
2018-07-03T02:35:35.558Z,11.59
2018-07-03T02:36:35.525Z,11.44
2018-07-03T02:37:35.510Z,11.31
2018-07-03T02:38:35.491Z,11.21
2018-07-03T02:39:35.485Z,11.13
2018-07-03T02:40:35.468Z,11.07
2018-07-03T02:41:35.439Z,10.95
2018-07-03T02:42:35.423Z,11.25
2018-07-03T02:43:35.407Z,11.28
2018-07-03T02:44:35.391Z,11.34
2018-07-03T02:45:35.363Z,11.32
2018-07-03T02:46:35.369Z,11.21
2018-07-03T02:47:35.330Z,11.20
2018-07-03T02:48:35.333Z,11.13
2018-07-03T02:49:35.295Z,11.09
2018-07-03T02:50:35.275Z,11.03
2018-07-03T02:51:35.257Z,10.96
2018-07-03T02:52:35.245Z,11.07
2018-07-03T02:53:35.224Z,11.11
2018-07-03T02:54:35.203Z,11.02
2018-07-03T02:55:35.192Z,10.94
2018-07-03T02:56:35.164Z,10.88
2018-07-03T02:57:35.151Z,10.76
2018-07-03T02:58:35.146Z,10.66
2018-07-03T02:59:35.115Z,10.56
2018-07-03T03:00:35.114Z,10.43
2018-07-03T03:01:35.086Z,10.42
2018-07-03T03:02:35.057Z,10.21
2018-07-03T03:03:35.038Z,10.21
2018-07-03T03:04:35.026Z,10.10
2018-07-03T03:05:35.003Z,10.03
2018-07-03T03:06:35.015Z,9.99
2018-07-03T03:07:34.968Z,10.03
2018-07-03T03:08:34.965Z,9.83
2018-07-03T03:09:34.945Z,9.88
2018-07-03T03:10:34.917Z,9.81
2018-07-03T03:11:34.915Z,9.83
2018-07-03T03:12:34.864Z,9.76
2018-07-03T03:13:34.856Z,9.79
2018-07-03T03:14:34.849Z,9.76
2018-07-03T03:15:34.828Z,9.78
2018-07-03T03:16:34.812Z,9.83
2018-07-03T03:17:34.791Z,9.97
2018-07-03T03:18:34.788Z,10.03
2018-07-03T03:19:34.771Z,9.97
2018-07-03T03:20:34.723Z,9.99
2018-07-03T03:21:34.713Z,9.94
2018-07-03T03:22:34.743Z,9.89
2018-07-03T03:23:34.676Z,9.85
2018-07-03T03:24:34.653Z,9.81
2018-07-03T03:25:34.644Z,9.71
2018-07-03T03:26:34.619Z,9.61
2018-07-03T03:27:34.605Z,9.57
2018-07-03T03:28:34.583Z,9.60
2018-07-03T03:29:34.563Z,9.57
2018-07-03T03:30:34.544Z,9.63
2018-07-03T03:31:34.538Z,9.75
2018-07-03T03:32:34.512Z,9.75
2018-07-03T03:33:34.488Z,9.78
2018-07-03T03:34:34.504Z,9.79
2018-07-03T03:35:34.458Z,9.83
2018-07-03T03:36:34.436Z,9.76
2018-07-03T03:37:34.423Z,9.66
2018-07-03T03:38:34.398Z,9.64
2018-07-03T03:39:34.384Z,9.56
2018-07-03T03:40:34.363Z,9.60
2018-07-03T03:41:34.340Z,9.58
2018-07-03T03:42:34.352Z,9.42
2018-07-03T03:43:34.312Z,9.40
2018-07-03T03:44:34.279Z,9.38
2018-07-03T03:45:34.293Z,9.38
2018-07-03T03:46:34.238Z,9.38
2018-07-03T03:47:34.219Z,9.39
2018-07-03T03:48:34.209Z,9.27
2018-07-03T03:49:34.191Z,9.25
2018-07-03T03:50:34.168Z,9.28
2018-07-03T03:51:34.152Z,9.24
2018-07-03T03:52:34.137Z,9.10
2018-07-03T03:53:34.108Z,9.13
2018-07-03T03:54:34.102Z,9.12
2018-07-03T03:55:34.072Z,9.12
2018-07-03T03:56:34.079Z,9.13
2018-07-03T03:57:34.031Z,9.18
2018-07-03T03:58:34.019Z,9.25
2018-07-03T03:59:33.996Z,9.45
2018-07-03T04:00:34.007Z,9.49
2018-07-03T04:01:33.989Z,9.64
2018-07-03T04:02:33.961Z,9.76
2018-07-03T04:03:33.926Z,9.89
2018-07-03T04:04:33.929Z,9.85
2018-07-03T04:05:33.895Z,9.99
2018-07-03T04:06:33.877Z,9.85
2018-07-03T04:07:33.863Z,9.82
2018-07-03T04:08:33.831Z,9.83
2018-07-03T04:09:33.813Z,9.83
2018-07-03T04:10:33.787Z,9.79
2018-07-03T04:11:33.774Z,9.83
2018-07-03T04:12:33.755Z,9.78
2018-07-03T04:13:33.739Z,9.76
2018-07-03T04:14:33.726Z,9.68
2018-07-03T04:15:33.695Z,9.58
2018-07-03T04:16:33.695Z,9.58
2018-07-03T04:17:33.664Z,9.58
2018-07-03T04:18:33.653Z,9.57
2018-07-03T04:19:33.631Z,9.63
2018-07-03T04:20:33.605Z,9.58
2018-07-03T04:21:33.586Z,9.58
2018-07-03T04:22:33.564Z,9.58
2018-07-03T04:23:33.576Z,9.63
2018-07-03T04:24:33.538Z,9.64
2018-07-03T04:25:33.522Z,9.61
2018-07-03T04:26:33.498Z,9.66
2018-07-03T04:27:33.471Z,9.76
2018-07-03T04:28:33.459Z,9.88
2018-07-03T04:29:33.438Z,10.18
2018-07-03T04:30:33.418Z,10.21
2018-07-03T04:31:33.393Z,10.24
2018-07-03T04:32:33.378Z,10.24
2018-07-03T04:33:33.365Z,10.24
2018-07-03T04:34:33.336Z,10.18
2018-07-03T04:35:33.326Z,10.22
2018-07-03T04:36:33.345Z,10.24
2018-07-03T04:37:33.287Z,10.26
2018-07-03T04:38:33.277Z,10.33
2018-07-03T04:39:33.302Z,10.32
2018-07-03T04:40:33.232Z,10.36
2018-07-03T04:41:33.236Z,10.30
2018-07-03T04:42:33.194Z,10.39
2018-07-03T04:43:33.184Z,10.36
2018-07-03T04:44:33.152Z,10.40
2018-07-03T04:45:33.142Z,10.51
2018-07-03T04:46:33.117Z,10.55
2018-07-03T04:47:33.098Z,10.55
2018-07-03T04:48:33.081Z,10.56
2018-07-03T04:49:33.072Z,10.68
2018-07-03T04:50:33.041Z,10.73
2018-07-03T04:51:33.030Z,10.70
2018-07-03T04:52:33.011Z,10.81
2018-07-03T04:53:32.986Z,10.84
2018-07-03T04:54:32.976Z,10.95
2018-07-03T04:55:32.958Z,10.92
2018-07-03T04:56:32.931Z,11.01
2018-07-03T04:57:32.912Z,11.16
2018-07-03T04:58:32.906Z,11.11
2018-07-03T04:59:32.883Z,11.47
2018-07-03T05:00:32.857Z,11.72
2018-07-03T05:01:32.844Z,11.89
2018-07-03T05:02:32.826Z,11.93
2018-07-03T05:03:32.813Z,11.96
2018-07-03T05:04:32.787Z,11.99
2018-07-03T05:05:32.780Z,12.12
2018-07-03T05:06:32.768Z,12.23
2018-07-03T05:07:32.731Z,12.13
2018-07-03T05:08:32.733Z,12.21
2018-07-03T05:09:32.708Z,12.31
2018-07-03T05:10:32.707Z,12.30
2018-07-03T05:11:32.658Z,12.39
2018-07-03T05:12:32.643Z,12.41
2018-07-03T05:13:32.628Z,12.44
2018-07-03T05:14:32.611Z,12.60
2018-07-03T05:15:32.591Z,12.59
2018-07-03T05:16:32.582Z,12.67
2018-07-03T05:17:32.588Z,12.74
2018-07-03T05:18:32.543Z,12.85
2018-07-03T05:19:32.527Z,13.02
2018-07-03T05:20:32.513Z,13.03
2018-07-03T05:21:32.490Z,13.02
2018-07-03T05:22:32.471Z,13.04
2018-07-03T05:23:32.468Z,13.12
2018-07-03T05:24:32.476Z,13.27
2018-07-03T05:25:32.430Z,13.27
2018-07-03T05:26:32.429Z,13.33
2018-07-03T05:27:32.401Z,13.47
2018-07-03T05:28:32.375Z,13.52
2018-07-03T05:29:32.363Z,13.51
2018-07-03T05:30:32.348Z,13.56
2018-07-03T05:31:32.442Z,13.69
2018-07-03T05:32:32.309Z,13.80
2018-07-03T05:33:32.286Z,13.96
2018-07-03T05:34:32.279Z,14.21
2018-07-03T05:35:32.254Z,14.42
2018-07-03T05:36:32.241Z,14.57
2018-07-03T05:37:32.236Z,14.61
2018-07-03T05:38:32.213Z,14.65
2018-07-03T05:39:32.196Z,14.72
2018-07-03T05:40:32.175Z,14.98
2018-07-03T05:41:32.155Z,15.03
2018-07-03T05:42:32.155Z,15.15
2018-07-03T05:43:32.126Z,15.19
2018-07-03T05:44:32.114Z,15.23
2018-07-03T05:45:32.099Z,15.24
2018-07-03T05:46:32.082Z,15.38
2018-07-03T05:47:32.072Z,15.42
2018-07-03T05:48:32.047Z,15.49
2018-07-03T05:49:32.041Z,15.61
2018-07-03T05:50:32.030Z,15.59
2018-07-03T05:51:32.005Z,15.66
2018-07-03T05:52:31.990Z,15.79
2018-07-03T05:53:31.979Z,15.86
2018-07-03T05:54:31.959Z,15.85
2018-07-03T05:55:31.946Z,16.14
2018-07-03T05:56:31.983Z,16.25
2018-07-03T05:57:31.909Z,16.37
2018-07-03T05:58:31.891Z,16.37
2018-07-03T05:59:31.887Z,16.41
2018-07-03T06:00:31.866Z,16.62
2018-07-03T06:01:31.856Z,16.71
2018-07-03T06:02:31.836Z,16.68
2018-07-03T06:03:31.830Z,16.68
2018-07-03T06:04:31.808Z,16.89
2018-07-03T06:05:31.798Z,16.93
2018-07-03T06:06:31.783Z,17.04
2018-07-03T06:07:31.775Z,17.03
2018-07-03T06:08:31.775Z,17.11
2018-07-03T06:09:31.771Z,17.14
2018-07-03T06:10:31.724Z,17.04
2018-07-03T06:11:31.715Z,17.11
2018-07-03T06:12:31.699Z,17.14
2018-07-03T06:13:31.680Z,17.40
2018-07-03T06:14:31.699Z,17.44
2018-07-03T06:15:31.658Z,17.51
2018-07-03T06:16:31.642Z,17.57
2018-07-03T06:17:31.636Z,17.78
2018-07-03T06:18:31.619Z,17.85
2018-07-03T06:19:31.597Z,17.99
2018-07-03T06:20:31.623Z,18.12
2018-07-03T06:21:31.581Z,18.21
2018-07-03T06:22:31.562Z,18.33
2018-07-03T06:23:31.569Z,18.40
2018-07-03T06:24:31.540Z,18.43
2018-07-03T06:25:31.552Z,18.68
2018-07-03T06:26:31.530Z,18.67
2018-07-03T06:27:31.503Z,18.90
2018-07-03T06:28:31.488Z,18.95
2018-07-03T06:29:31.485Z,19.11
2018-07-03T06:30:31.480Z,19.15
2018-07-03T06:31:31.449Z,19.29
2018-07-03T06:32:31.433Z,19.35
2018-07-03T06:33:31.426Z,19.33
2018-07-03T06:34:31.414Z,19.36
2018-07-03T06:35:31.407Z,19.65
2018-07-03T06:36:31.382Z,19.79
2018-07-03T06:37:31.404Z,19.72
2018-07-03T06:38:31.370Z,19.66
2018-07-03T06:39:31.352Z,19.73
2018-07-03T06:40:31.330Z,19.76
2018-07-03T06:41:31.334Z,19.70
2018-07-03T06:42:31.309Z,19.76
2018-07-03T06:43:31.303Z,19.78
2018-07-03T06:44:31.289Z,19.94
2018-07-03T06:45:31.267Z,19.88
2018-07-03T06:46:31.270Z,19.97
2018-07-03T06:47:31.249Z,20.13
2018-07-03T06:48:31.241Z,20.18
2018-07-03T06:49:31.229Z,20.21
2018-07-03T06:50:31.213Z,20.25
2018-07-03T06:51:31.216Z,20.28
2018-07-03T06:52:31.207Z,20.39
2018-07-03T06:53:31.188Z,20.61
2018-07-03T06:54:31.165Z,20.72
2018-07-03T06:55:31.165Z,20.86
2018-07-03T06:56:31.145Z,21.04
2018-07-03T06:57:31.130Z,21.08
2018-07-03T06:58:31.139Z,21.13
2018-07-03T06:59:31.109Z,21.08
2018-07-03T07:00:31.103Z,21.16
2018-07-03T07:01:31.087Z,21.05
2018-07-03T07:02:31.081Z,21.23
2018-07-03T07:03:31.071Z,21.30
2018-07-03T07:04:31.058Z,21.32
2018-07-03T07:05:31.068Z,21.27
2018-07-03T07:06:31.051Z,21.32
2018-07-03T07:07:31.025Z,21.45
2018-07-03T07:08:31.082Z,21.45
2018-07-03T07:09:31.069Z,21.60
2018-07-03T07:10:30.995Z,21.60
2018-07-03T07:11:31.009Z,21.57
2018-07-03T07:12:30.972Z,21.59
2018-07-03T07:13:30.979Z,21.76
2018-07-03T07:14:30.947Z,21.85
2018-07-03T07:15:30.937Z,21.97
2018-07-03T07:16:30.921Z,22.06
2018-07-03T07:17:30.911Z,22.19
2018-07-03T07:18:30.919Z,22.32
2018-07-03T07:19:30.904Z,22.27
2018-07-03T07:20:30.894Z,22.34
2018-07-03T07:21:30.876Z,22.32
2018-07-03T07:22:30.867Z,22.34
2018-07-03T07:23:30.860Z,22.43
2018-07-03T07:24:30.856Z,22.39
2018-07-03T07:25:30.835Z,22.52
2018-07-03T07:26:30.820Z,22.47
2018-07-03T07:27:30.817Z,22.64
2018-07-03T07:28:30.894Z,22.87
2018-07-03T07:29:30.792Z,22.74
2018-07-03T07:30:30.781Z,22.99
2018-07-03T07:31:30.783Z,23.38
2018-07-03T07:32:30.769Z,23.62
2018-07-03T07:33:30.760Z,23.89
2018-07-03T07:34:30.754Z,24.19
2018-07-03T07:35:30.737Z,24.45
2018-07-03T07:36:30.750Z,24.52
2018-07-03T07:37:30.735Z,24.61
2018-07-03T07:38:30.721Z,25.15
2018-07-03T07:39:30.702Z,25.46
2018-07-03T07:40:30.699Z,25.83
2018-07-03T07:41:30.686Z,26.08
2018-07-03T07:42:30.679Z,26.18
2018-07-03T07:43:30.670Z,26.52
2018-07-03T07:44:30.673Z,26.62
2018-07-03T07:45:30.660Z,26.64
2018-07-03T07:46:30.663Z,26.36
2018-07-03T07:47:30.645Z,26.61
2018-07-03T07:48:30.646Z,26.77
2018-07-03T07:49:30.632Z,26.73
2018-07-03T07:50:30.632Z,26.95
2018-07-03T07:51:30.626Z,26.95
2018-07-03T07:52:30.621Z,26.91
2018-07-03T07:53:30.620Z,27.20
2018-07-03T07:54:30.606Z,27.66
2018-07-03T07:55:30.603Z,27.77
2018-07-03T07:56:30.664Z,27.73
2018-07-03T07:57:30.593Z,27.23
2018-07-03T07:58:30.584Z,27.20
2018-07-03T07:59:30.577Z,27.10
2018-07-03T08:00:30.570Z,27.04
2018-07-03T08:01:30.568Z,27.17
2018-07-03T08:02:30.564Z,26.98
2018-07-03T08:03:30.558Z,26.81
2018-07-03T08:04:30.558Z,26.94
2018-07-03T08:05:30.553Z,26.77
2018-07-03T08:06:30.545Z,26.52
2018-07-03T08:07:30.547Z,26.80
2018-07-03T08:08:30.540Z,27.29
2018-07-03T08:09:30.537Z,27.14
2018-07-03T08:10:30.529Z,26.77
2018-07-03T08:11:30.526Z,26.77
2018-07-03T08:12:30.510Z,26.98
2018-07-03T08:13:30.507Z,27.39
2018-07-03T08:14:30.513Z,27.36
2018-07-03T08:15:30.497Z,27.41
2018-07-03T08:16:30.497Z,27.28
2018-07-03T08:17:30.491Z,27.11
2018-07-03T08:18:30.481Z,27.01
2018-07-03T08:19:30.487Z,27.16
2018-07-03T08:20:30.473Z,26.98
2018-07-03T08:21:30.474Z,27.13
2018-07-03T08:22:30.475Z,27.43
2018-07-03T08:23:30.462Z,27.61
2018-07-03T08:24:30.455Z,27.58
2018-07-03T08:25:30.449Z,27.71
2018-07-03T08:26:30.475Z,28.04
2018-07-03T08:27:30.439Z,28.33
2018-07-03T08:28:30.443Z,28.07
2018-07-03T08:29:30.436Z,28.23
2018-07-03T08:30:30.437Z,28.11
2018-07-03T08:31:30.430Z,28.28
2018-07-03T08:32:30.414Z,28.11
2018-07-03T08:33:30.415Z,27.77
2018-07-03T08:34:30.409Z,27.95
2018-07-03T08:35:30.412Z,27.94
2018-07-03T08:36:30.401Z,28.19
2018-07-03T08:37:30.395Z,27.91
2018-07-03T08:38:30.392Z,28.13
2018-07-03T08:39:30.398Z,28.11
2018-07-03T08:40:30.384Z,28.59
2018-07-03T08:41:30.376Z,28.80
2018-07-03T08:42:30.370Z,29.13
2018-07-03T08:43:30.368Z,29.28
2018-07-03T08:44:30.378Z,29.10
2018-07-03T08:45:30.369Z,29.22
2018-07-03T08:46:30.363Z,29.08
2018-07-03T08:47:30.366Z,29.11
2018-07-03T08:48:30.387Z,28.95
2018-07-03T08:49:30.353Z,28.91
2018-07-03T08:50:30.343Z,28.72
2018-07-03T08:51:30.340Z,28.62
2018-07-03T08:52:30.333Z,28.23
2018-07-03T08:53:30.337Z,28.53
2018-07-03T08:54:30.331Z,28.56
2018-07-03T08:55:30.321Z,28.81
2018-07-03T08:56:30.321Z,29.01
2018-07-03T08:57:30.314Z,29.04
2018-07-03T08:58:30.308Z,29.10
2018-07-03T08:59:30.308Z,29.22
2018-07-03T09:00:30.308Z,29.28
2018-07-03T09:01:30.298Z,29.28
2018-07-03T09:02:30.295Z,29.08
2018-07-03T09:03:30.285Z,28.97
2018-07-03T09:04:30.282Z,28.41
2018-07-03T09:05:30.279Z,28.65
2018-07-03T09:06:30.266Z,28.80
2018-07-03T09:07:30.276Z,29.20
2018-07-03T09:08:30.272Z,29.20
2018-07-03T09:09:30.270Z,29.19
2018-07-03T09:10:30.259Z,28.95
2018-07-03T09:11:30.304Z,29.18
2018-07-03T09:12:30.257Z,29.29
2018-07-03T09:13:30.259Z,29.04
2018-07-03T09:14:30.241Z,29.25
2018-07-03T09:15:30.244Z,29.43
2018-07-03T09:16:30.240Z,29.40
2018-07-03T09:17:30.234Z,29.28
2018-07-03T09:18:30.234Z,29.29
2018-07-03T09:19:30.224Z,28.91
2018-07-03T09:20:30.221Z,28.69
2018-07-03T09:21:30.224Z,28.82
2018-07-03T09:22:30.218Z,28.73
2018-07-03T09:23:30.236Z,28.84
2018-07-03T09:24:30.208Z,28.97
2018-07-03T09:25:30.205Z,28.66
2018-07-03T09:26:30.209Z,28.78
2018-07-03T09:27:30.196Z,28.77
2018-07-03T09:28:30.189Z,29.01
2018-07-03T09:29:30.180Z,29.28
2018-07-03T09:30:30.206Z,29.26
2018-07-03T09:31:30.182Z,29.37
2018-07-03T09:32:30.170Z,29.57
2018-07-03T09:33:30.179Z,29.75
2018-07-03T09:34:30.160Z,29.77
2018-07-03T09:35:30.167Z,30.05
2018-07-03T09:36:30.157Z,30.21
2018-07-03T09:37:30.148Z,30.40
2018-07-03T09:38:30.151Z,30.36
2018-07-03T09:39:30.186Z,30.38
2018-07-03T09:40:30.154Z,30.33
2018-07-03T09:41:30.171Z,30.37
2018-07-03T09:42:30.166Z,30.47
2018-07-03T09:43:30.125Z,30.56
2018-07-03T09:44:30.117Z,30.49
2018-07-03T09:45:30.124Z,29.70
2018-07-03T09:46:30.114Z,29.53
2018-07-03T09:47:30.111Z,29.25
2018-07-03T09:48:30.114Z,29.23
2018-07-03T09:49:30.108Z,28.90
2018-07-03T09:50:30.109Z,29.03
2018-07-03T09:51:30.104Z,29.13
2018-07-03T09:52:30.085Z,29.04
2018-07-03T09:53:30.088Z,28.65
2018-07-03T09:54:30.095Z,28.17
2018-07-03T09:55:30.083Z,28.01
2018-07-03T09:56:30.086Z,28.11
2018-07-03T09:57:30.108Z,28.46
2018-07-03T09:58:30.073Z,28.23
2018-07-03T09:59:30.072Z,28.25
2018-07-03T10:00:30.060Z,28.40
2018-07-03T10:01:30.060Z,28.72
2018-07-03T10:02:30.072Z,28.90
2018-07-03T10:03:30.060Z,28.75
2018-07-03T10:04:30.048Z,28.54
2018-07-03T10:05:30.045Z,28.95
2018-07-03T10:06:30.041Z,29.19
2018-07-03T10:07:30.041Z,29.43
2018-07-03T10:08:30.045Z,29.56
2018-07-03T10:09:30.032Z,29.60
2018-07-03T10:10:30.028Z,29.10
2018-07-03T10:11:30.023Z,28.77
2018-07-03T10:12:30.022Z,28.72
2018-07-03T10:13:30.012Z,28.81
2018-07-03T10:14:30.011Z,28.96
2018-07-03T10:15:30.010Z,28.72
2018-07-03T10:16:30.033Z,28.95
2018-07-03T10:17:30.028Z,29.15
2018-07-03T10:18:29.999Z,29.28
2018-07-03T10:19:29.997Z,29.26
2018-07-03T10:20:30.016Z,29.29
2018-07-03T10:21:29.990Z,29.49
2018-07-03T10:22:29.990Z,29.57
2018-07-03T10:23:29.986Z,29.68
2018-07-03T10:24:29.990Z,29.77
2018-07-03T10:25:29.988Z,29.97
2018-07-03T10:26:29.973Z,30.00
2018-07-03T10:27:29.972Z,29.70
2018-07-03T10:28:29.970Z,29.84
2018-07-03T10:29:29.970Z,29.99
2018-07-03T10:30:29.970Z,29.87
2018-07-03T10:31:29.973Z,29.78
2018-07-03T10:32:29.961Z,29.74
2018-07-03T10:33:29.965Z,29.90
2018-07-03T10:34:29.964Z,30.05
2018-07-03T10:35:29.960Z,30.24
2018-07-03T10:36:29.958Z,30.38
2018-07-03T10:37:29.955Z,30.56
2018-07-03T10:38:29.966Z,30.54
2018-07-03T10:39:29.970Z,30.67
2018-07-03T10:40:29.955Z,30.49
2018-07-03T10:41:29.958Z,30.53
2018-07-03T10:42:29.951Z,30.61
2018-07-03T10:43:29.954Z,30.61
2018-07-03T10:44:29.958Z,30.71
2018-07-03T10:45:29.957Z,30.78
2018-07-03T10:46:29.963Z,31.05
2018-07-03T10:47:29.954Z,30.83
2018-07-03T10:48:29.960Z,30.45
2018-07-03T10:49:29.961Z,30.14
2018-07-03T10:50:29.958Z,29.86
2018-07-03T10:51:29.964Z,29.53
2018-07-03T10:52:29.961Z,29.59
2018-07-03T10:53:29.967Z,29.57
2018-07-03T10:54:29.964Z,29.65
2018-07-03T10:55:29.974Z,29.40
2018-07-03T10:56:29.971Z,29.25
2018-07-03T10:57:29.967Z,29.41
2018-07-03T10:58:29.989Z,29.19
2018-07-03T10:59:30.053Z,28.93
2018-07-03T11:00:29.980Z,28.97
2018-07-03T11:01:29.977Z,29.25
2018-07-03T11:02:29.983Z,29.56
2018-07-03T11:03:29.986Z,29.78
2018-07-03T11:04:29.980Z,30.19
2018-07-03T11:05:29.986Z,30.47
2018-07-03T11:06:29.993Z,30.62
2018-07-03T11:07:29.990Z,30.83
2018-07-03T11:08:29.991Z,30.86
2018-07-03T11:09:30.011Z,30.86
2018-07-03T11:10:30.007Z,31.17
2018-07-03T11:11:30.009Z,31.40
2018-07-03T11:12:30.007Z,31.53
2018-07-03T11:13:30.026Z,31.42
2018-07-03T11:14:30.013Z,31.36
2018-07-03T11:15:30.020Z,31.23
2018-07-03T11:16:30.036Z,31.28
2018-07-03T11:17:30.032Z,31.21
2018-07-03T11:18:30.042Z,31.09
2018-07-03T11:19:30.037Z,31.21
2018-07-03T11:20:30.048Z,31.46
2018-07-03T11:21:30.058Z,31.42
2018-07-03T11:22:30.061Z,31.57
2018-07-03T11:23:30.067Z,31.67
2018-07-03T11:24:30.058Z,31.79
2018-07-03T11:25:30.068Z,31.68
2018-07-03T11:26:30.086Z,31.72
2018-07-03T11:27:30.086Z,31.85
2018-07-03T11:28:30.083Z,31.88
2018-07-03T11:29:30.087Z,31.91
2018-07-03T11:30:30.090Z,31.76
2018-07-03T11:31:30.096Z,31.54
2018-07-03T11:32:30.102Z,31.55
2018-07-03T11:33:30.115Z,31.54
2018-07-03T11:34:30.118Z,31.45
2018-07-03T11:35:30.136Z,31.48
2018-07-03T11:36:30.123Z,31.73
2018-07-03T11:37:30.136Z,31.20
2018-07-03T11:38:30.155Z,31.20
2018-07-03T11:39:30.152Z,31.43
2018-07-03T11:40:30.178Z,31.67
2018-07-03T11:41:30.161Z,31.98
2018-07-03T11:42:30.168Z,32.13
2018-07-03T11:43:30.174Z,32.42
2018-07-03T11:44:30.185Z,32.59
2018-07-03T11:45:30.187Z,32.86
2018-07-03T11:46:30.208Z,33.14
2018-07-03T11:47:30.203Z,33.10
2018-07-03T11:48:30.253Z,32.95
2018-07-03T11:49:30.225Z,32.73
2018-07-03T11:50:30.229Z,32.81
2018-07-03T11:51:30.235Z,32.81
2018-07-03T11:52:30.241Z,32.76
2018-07-03T11:53:30.310Z,32.85
2018-07-03T11:54:30.258Z,32.66
2018-07-03T11:55:30.265Z,32.76
2018-07-03T11:56:30.274Z,32.84
2018-07-03T11:57:30.279Z,32.52
2018-07-03T11:58:30.296Z,32.15
2018-07-03T11:59:30.308Z,32.49
2018-07-03T12:00:30.305Z,32.48
2018-07-03T12:01:30.397Z,32.57
2018-07-03T12:02:30.327Z,32.58
2018-07-03T12:03:30.338Z,32.58
2018-07-03T12:04:30.345Z,32.22
2018-07-03T12:05:30.345Z,32.18
2018-07-03T12:06:30.358Z,32.35
2018-07-03T12:07:30.364Z,32.47
2018-07-03T12:08:30.373Z,32.61
2018-07-03T12:09:30.380Z,32.98
2018-07-03T12:10:30.386Z,33.37
2018-07-03T12:11:30.402Z,33.57
2018-07-03T12:12:30.412Z,33.06
2018-07-03T12:13:30.431Z,32.66
2018-07-03T12:14:30.424Z,32.69
2018-07-03T12:15:30.433Z,32.92
2018-07-03T12:16:30.434Z,33.15
2018-07-03T12:17:30.447Z,33.27
2018-07-03T12:18:30.456Z,33.43
2018-07-03T12:19:30.470Z,33.48
2018-07-03T12:20:30.489Z,33.70
2018-07-03T12:21:30.485Z,33.95
2018-07-03T12:22:30.489Z,34.22
2018-07-03T12:23:30.504Z,34.05
2018-07-03T12:24:30.502Z,34.00
2018-07-03T12:25:30.518Z,33.98
2018-07-03T12:26:30.543Z,33.97
2018-07-03T12:27:30.530Z,34.13
2018-07-03T12:28:30.537Z,34.02
2018-07-03T12:29:30.547Z,34.08
2018-07-03T12:30:30.562Z,34.23
2018-07-03T12:31:30.566Z,34.05
2018-07-03T12:32:30.572Z,34.24
2018-07-03T12:33:30.578Z,34.60
2018-07-03T12:34:30.591Z,34.80
2018-07-03T12:35:30.598Z,34.57
2018-07-03T12:36:30.613Z,34.35
2018-07-03T12:37:30.617Z,34.08
2018-07-03T12:38:30.634Z,34.11
2018-07-03T12:39:30.636Z,34.05
2018-07-03T12:40:30.645Z,34.14
2018-07-03T12:41:30.662Z,33.92
2018-07-03T12:42:30.672Z,33.79
2018-07-03T12:43:30.682Z,33.55
2018-07-03T12:44:30.688Z,33.01
2018-07-03T12:45:30.690Z,33.20
2018-07-03T12:46:30.703Z,33.26
2018-07-03T12:47:30.711Z,33.52
2018-07-03T12:48:30.716Z,33.55
2018-07-03T12:49:30.732Z,33.71
2018-07-03T12:50:30.736Z,33.98
2018-07-03T12:51:30.742Z,34.00
2018-07-03T12:52:30.758Z,33.10
2018-07-03T12:53:30.759Z,32.51
2018-07-03T12:54:30.782Z,32.62
2018-07-03T12:55:30.786Z,32.93